createdAt,value
2017-08-07T00:00:27.182Z,0
2017-08-07T00:01:27.234Z,0
2017-08-07T00:02:27.305Z,0
2017-08-07T00:03:27.356Z,0
2017-08-07T00:04:27.416Z,0
2017-08-07T00:05:27.474Z,0
2017-08-07T00:06:27.528Z,0
2017-08-07T00:07:27.276Z,0
2017-08-07T00:08:27.631Z,0
2017-08-07T00:09:27.388Z,0
2017-08-07T00:10:27.754Z,0
2017-08-07T00:11:27.491Z,0
2017-08-07T00:12:27.852Z,0
2017-08-07T00:13:27.903Z,0
2017-08-07T00:14:27.963Z,0
2017-08-07T00:15:27.719Z,0
2017-08-07T00:16:28.076Z,0
2017-08-07T00:17:28.133Z,0
2017-08-07T00:18:28.193Z,0
2017-08-07T00:19:28.237Z,0
2017-08-07T00:20:28.295Z,0
2017-08-07T00:21:28.350Z,0
2017-08-07T00:22:28.403Z,0
2017-08-07T00:23:28.470Z,0
2017-08-07T00:24:28.200Z,0
2017-08-07T00:25:28.269Z,0
2017-08-07T00:26:28.633Z,0
2017-08-07T00:27:28.680Z,0
2017-08-07T00:28:28.730Z,0
2017-08-07T00:29:28.791Z,0
2017-08-07T00:30:28.837Z,0
2017-08-07T00:31:28.900Z,0
2017-08-07T00:32:28.955Z,0
2017-08-07T00:33:29.012Z,0
2017-08-07T00:34:29.066Z,0
2017-08-07T00:35:29.122Z,0
2017-08-07T00:36:29.389Z,0
2017-08-07T00:37:29.233Z,0
2017-08-07T00:38:29.294Z,0
2017-08-07T00:39:29.341Z,0
2017-08-07T00:40:29.402Z,0
2017-08-07T00:41:29.465Z,0
2017-08-07T00:42:29.523Z,0
2017-08-07T00:43:29.566Z,0
2017-08-07T00:44:29.636Z,0
2017-08-07T00:45:29.690Z,0
2017-08-07T00:46:29.725Z,0
2017-08-07T00:47:29.793Z,0
2017-08-07T00:48:29.854Z,0
2017-08-07T00:49:29.911Z,0
2017-08-07T00:50:29.951Z,0
2017-08-07T00:51:30.017Z,0
2017-08-07T00:52:30.067Z,0
2017-08-07T00:53:30.130Z,0
2017-08-07T00:54:29.879Z,0
2017-08-07T00:55:30.239Z,0
2017-08-07T00:56:30.292Z,0
2017-08-07T00:57:30.344Z,0
2017-08-07T00:58:30.394Z,0
2017-08-07T00:59:30.457Z,0
2017-08-07T01:00:30.515Z,0
2017-08-07T01:01:30.566Z,0
2017-08-07T01:02:30.615Z,0
2017-08-07T01:03:30.675Z,0
2017-08-07T01:04:30.732Z,0
2017-08-07T01:05:30.789Z,0
2017-08-07T01:06:30.535Z,0
2017-08-07T01:07:31.109Z,0
2017-08-07T01:08:30.947Z,0
2017-08-07T01:09:30.717Z,0
2017-08-07T01:10:31.067Z,0
2017-08-07T01:11:31.110Z,0
2017-08-07T01:12:31.369Z,0
2017-08-07T01:13:31.232Z,0
2017-08-07T01:14:31.292Z,0
2017-08-07T01:15:31.047Z,0
2017-08-07T01:16:31.403Z,0
2017-08-07T01:17:31.445Z,0
2017-08-07T01:18:31.505Z,0
2017-08-07T01:19:31.262Z,0
2017-08-07T01:20:31.628Z,0
2017-08-07T01:21:31.687Z,0
2017-08-07T01:22:31.739Z,0
2017-08-07T01:23:31.786Z,0
2017-08-07T01:24:31.838Z,0
2017-08-07T01:25:31.588Z,0
2017-08-07T01:26:31.949Z,0
2017-08-07T01:27:32.004Z,0
2017-08-07T01:28:32.062Z,0
2017-08-07T01:29:32.112Z,0
2017-08-07T01:30:31.877Z,0
2017-08-07T01:31:32.226Z,0
2017-08-07T01:32:32.277Z,0
2017-08-07T01:33:32.344Z,0
2017-08-07T01:34:32.392Z,0
2017-08-07T01:35:32.447Z,0
2017-08-07T01:36:32.496Z,0
2017-08-07T01:37:32.768Z,0
2017-08-07T01:38:32.809Z,0
2017-08-07T01:39:32.670Z,0
2017-08-07T01:40:32.732Z,0
2017-08-07T01:41:32.778Z,0
2017-08-07T01:42:32.744Z,0
2017-08-07T01:43:32.890Z,0
2017-08-07T01:44:32.645Z,0
2017-08-07T01:45:33.012Z,0
2017-08-07T01:46:33.057Z,0
2017-08-07T01:47:33.114Z,0
2017-08-07T01:48:33.169Z,0
2017-08-07T01:49:33.237Z,0
2017-08-07T01:50:33.279Z,0
2017-08-07T01:51:33.349Z,0
2017-08-07T01:52:33.401Z,0
2017-08-07T01:53:33.447Z,0
2017-08-07T01:54:33.502Z,0
2017-08-07T01:55:33.554Z,0
2017-08-07T01:56:33.614Z,0
2017-08-07T01:57:33.362Z,0
2017-08-07T01:58:33.725Z,0
2017-08-07T01:59:33.790Z,0
2017-08-07T02:00:33.827Z,0
2017-08-07T02:01:33.883Z,0
2017-08-07T02:02:33.948Z,0
2017-08-07T02:03:34.005Z,0
2017-08-07T02:04:34.064Z,0
2017-08-07T02:05:34.103Z,0
2017-08-07T02:06:34.170Z,0
2017-08-07T02:07:33.928Z,0
2017-08-07T02:08:34.281Z,0
2017-08-07T02:09:34.334Z,0
2017-08-07T02:10:34.389Z,0
2017-08-07T02:11:34.440Z,0
2017-08-07T02:12:34.498Z,0
2017-08-07T02:13:34.563Z,0
2017-08-07T02:14:34.607Z,0
2017-08-07T02:15:34.675Z,0
2017-08-07T02:16:34.734Z,0
2017-08-07T02:17:34.775Z,0
2017-08-07T02:18:34.833Z,0
2017-08-07T02:19:34.931Z,0
2017-08-07T02:20:34.955Z,0
2017-08-07T02:21:34.988Z,0
2017-08-07T02:22:35.045Z,0
2017-08-07T02:23:35.115Z,0
2017-08-07T02:24:35.160Z,0
2017-08-07T02:25:35.229Z,0
2017-08-07T02:26:35.282Z,0
2017-08-07T02:27:35.364Z,0
2017-08-07T02:28:35.379Z,0
2017-08-07T02:29:35.440Z,0
2017-08-07T02:30:35.196Z,0
2017-08-07T02:31:35.262Z,0
2017-08-07T02:32:35.323Z,0
2017-08-07T02:33:35.664Z,0
2017-08-07T02:34:35.719Z,0
2017-08-07T02:35:35.772Z,0
2017-08-07T02:36:35.840Z,0
2017-08-07T02:37:35.888Z,0
2017-08-07T02:38:35.941Z,0
2017-08-07T02:39:36.010Z,0
2017-08-07T02:40:36.062Z,0
2017-08-07T02:41:36.120Z,0
2017-08-07T02:42:35.860Z,0
2017-08-07T02:43:36.216Z,0
2017-08-07T02:44:36.267Z,0
2017-08-07T02:45:36.521Z,0
2017-08-07T02:46:36.383Z,0
2017-08-07T02:47:36.140Z,0
2017-08-07T02:48:36.495Z,0
2017-08-07T02:49:36.254Z,0
2017-08-07T02:50:37.032Z,0
2017-08-07T02:51:36.660Z,0
2017-08-07T02:52:36.725Z,0
2017-08-07T02:53:50.398Z,0
2017-08-07T02:54:50.465Z,0
2017-08-07T02:55:36.889Z,0
2017-08-07T02:56:36.936Z,0
2017-08-07T02:57:36.983Z,0
2017-08-07T02:58:37.050Z,0
2017-08-07T02:59:37.307Z,0
2017-08-07T03:00:37.164Z,0
2017-08-07T03:01:37.210Z,0
2017-08-07T03:02:37.268Z,0
2017-08-07T03:03:37.324Z,0
2017-08-07T03:04:37.382Z,0
2017-08-07T03:05:37.424Z,0
2017-08-07T03:06:37.186Z,0
2017-08-07T03:07:37.551Z,0
2017-08-07T03:08:37.593Z,0
2017-08-07T03:09:37.667Z,0
2017-08-07T03:10:37.711Z,0
2017-08-07T03:11:37.765Z,0
2017-08-07T03:12:37.826Z,0
2017-08-07T03:13:37.872Z,0
2017-08-07T03:14:37.936Z,0
2017-08-07T03:15:37.679Z,0
2017-08-07T03:16:38.047Z,0
2017-08-07T03:17:38.107Z,0
2017-08-07T03:18:38.149Z,0
2017-08-07T03:19:38.207Z,0
2017-08-07T03:20:38.264Z,0
2017-08-07T03:21:38.327Z,0
2017-08-07T03:22:38.075Z,0
2017-08-07T03:23:38.429Z,0
2017-08-07T03:24:38.491Z,0
2017-08-07T03:25:38.236Z,0
2017-08-07T03:26:38.590Z,0
2017-08-07T03:27:38.663Z,0
2017-08-07T03:28:38.707Z,0
2017-08-07T03:29:38.757Z,0
2017-08-07T03:30:39.048Z,0
2017-08-07T03:31:38.877Z,0
2017-08-07T03:32:38.918Z,0
2017-08-07T03:33:38.980Z,0
2017-08-07T03:34:39.048Z,0
2017-08-07T03:35:39.298Z,0
2017-08-07T03:36:39.143Z,0
2017-08-07T03:37:38.906Z,0
2017-08-07T03:38:39.261Z,0
2017-08-07T03:39:39.320Z,0
2017-08-07T03:40:39.375Z,0
2017-08-07T03:41:39.134Z,0
2017-08-07T03:42:39.472Z,0
2017-08-07T03:43:39.532Z,0
2017-08-07T03:44:39.590Z,0
2017-08-07T03:45:39.642Z,0
2017-08-07T03:46:39.699Z,0
2017-08-07T03:47:39.749Z,0
2017-08-07T03:48:39.807Z,4
2017-08-07T03:49:39.858Z,4
2017-08-07T03:50:39.921Z,4
2017-08-07T03:51:39.996Z,0
2017-08-07T03:52:40.024Z,4
2017-08-07T03:53:40.086Z,4
2017-08-07T03:54:40.149Z,4
2017-08-07T03:55:40.210Z,4
2017-08-07T03:56:40.266Z,4
2017-08-07T03:57:40.516Z,4
2017-08-07T03:58:40.368Z,8
2017-08-07T03:59:40.423Z,8
2017-08-07T04:00:40.470Z,8
2017-08-07T04:01:40.228Z,8
2017-08-07T04:02:40.591Z,8
2017-08-07T04:03:40.642Z,8
2017-08-07T04:04:40.696Z,12
2017-08-07T04:05:54.646Z,12
2017-08-07T04:06:41.053Z,12
2017-08-07T04:07:40.871Z,12
2017-08-07T04:08:40.625Z,16
2017-08-07T04:09:40.979Z,16
2017-08-07T04:10:41.033Z,20
2017-08-07T04:11:41.093Z,20
2017-08-07T04:12:41.135Z,24
2017-08-07T04:13:41.192Z,24
2017-08-07T04:14:41.250Z,24
2017-08-07T04:15:41.313Z,28
2017-08-07T04:16:41.370Z,28
2017-08-07T04:17:41.407Z,32
2017-08-07T04:18:41.475Z,32
2017-08-07T04:19:41.540Z,32
2017-08-07T04:20:41.584Z,36
2017-08-07T04:21:41.647Z,36
2017-08-07T04:22:41.724Z,36
2017-08-07T04:23:41.751Z,40
2017-08-07T04:24:41.815Z,40
2017-08-07T04:25:41.864Z,44
2017-08-07T04:26:41.908Z,44
2017-08-07T04:27:41.963Z,44
2017-08-07T04:28:42.031Z,48
2017-08-07T04:29:42.082Z,48
2017-08-07T04:30:41.831Z,52
2017-08-07T04:31:42.191Z,52
2017-08-07T04:32:42.249Z,56
2017-08-07T04:33:42.002Z,56
2017-08-07T04:34:42.366Z,60
2017-08-07T04:35:42.107Z,60
2017-08-07T04:36:42.163Z,60
2017-08-07T04:37:42.212Z,64
2017-08-07T04:38:42.275Z,64
2017-08-07T04:39:42.647Z,68
2017-08-07T04:40:42.679Z,68
2017-08-07T04:41:42.445Z,72
2017-08-07T04:42:42.796Z,72
2017-08-07T04:43:42.855Z,76
2017-08-07T04:44:42.609Z,76
2017-08-07T04:45:42.662Z,80
2017-08-07T04:46:43.022Z,76
2017-08-07T04:47:43.075Z,80
2017-08-07T04:48:42.833Z,80
2017-08-07T04:49:43.188Z,88
2017-08-07T04:50:43.237Z,96
2017-08-07T04:51:43.303Z,108
2017-08-07T04:52:43.051Z,116
2017-08-07T04:53:43.399Z,116
2017-08-07T04:54:43.164Z,116
2017-08-07T04:55:43.525Z,120
2017-08-07T04:56:43.595Z,120
2017-08-07T04:57:43.320Z,124
2017-08-07T04:58:43.685Z,124
2017-08-07T04:59:43.142Z,128
2017-08-07T05:00:43.802Z,128
2017-08-07T05:01:43.540Z,132
2017-08-07T05:02:43.612Z,132
2017-08-07T05:03:43.958Z,136
2017-08-07T05:04:44.018Z,136
2017-08-07T05:05:44.080Z,136
2017-08-07T05:06:44.130Z,136
2017-08-07T05:07:44.180Z,140
2017-08-07T05:08:44.231Z,144
2017-08-07T05:09:44.301Z,144
2017-08-07T05:10:44.360Z,148
2017-08-07T05:11:44.409Z,152
2017-08-07T05:12:44.456Z,152
2017-08-07T05:13:44.506Z,156
2017-08-07T05:14:44.573Z,156
2017-08-07T05:15:44.623Z,156
2017-08-07T05:16:44.686Z,164
2017-08-07T05:17:44.740Z,164
2017-08-07T05:18:44.789Z,168
2017-08-07T05:19:44.857Z,168
2017-08-07T05:20:44.903Z,172
2017-08-07T05:21:44.956Z,176
2017-08-07T05:22:44.705Z,176
2017-08-07T05:23:44.764Z,180
2017-08-07T05:24:45.128Z,188
2017-08-07T05:25:45.189Z,192
2017-08-07T05:26:45.226Z,192
2017-08-07T05:27:45.280Z,200
2017-08-07T05:28:45.351Z,200
2017-08-07T05:29:45.401Z,204
2017-08-07T05:30:45.458Z,208
2017-08-07T05:31:45.510Z,212
2017-08-07T05:32:45.570Z,216
2017-08-07T05:33:45.625Z,216
2017-08-07T05:34:45.675Z,220
2017-08-07T05:35:45.733Z,224
2017-08-07T05:36:45.793Z,224
2017-08-07T05:37:45.842Z,224
2017-08-07T05:38:45.904Z,228
2017-08-07T05:39:45.956Z,228
2017-08-07T05:40:45.707Z,236
2017-08-07T05:41:45.765Z,236
2017-08-07T05:42:45.813Z,240
2017-08-07T05:43:46.181Z,240
2017-08-07T05:44:46.229Z,248
2017-08-07T05:45:46.290Z,252
2017-08-07T05:46:46.349Z,252
2017-08-07T05:47:46.402Z,252
2017-08-07T05:48:46.154Z,256
2017-08-07T05:49:46.534Z,256
2017-08-07T05:50:46.563Z,260
2017-08-07T05:51:46.620Z,260
2017-08-07T05:52:46.379Z,260
2017-08-07T05:53:46.730Z,264
2017-08-07T05:54:46.774Z,264
2017-08-07T05:55:46.850Z,264
2017-08-07T05:56:46.588Z,268
2017-08-07T05:57:46.962Z,268
2017-08-07T05:58:47.012Z,272
2017-08-07T05:59:47.058Z,272
2017-08-07T06:00:47.114Z,276
2017-08-07T06:01:47.190Z,272
2017-08-07T06:02:47.240Z,276
2017-08-07T06:03:47.290Z,280
2017-08-07T06:04:47.335Z,276
2017-08-07T06:05:47.392Z,280
2017-08-07T06:06:47.452Z,280
2017-08-07T06:07:47.512Z,284
2017-08-07T06:08:47.253Z,284
2017-08-07T06:09:47.320Z,284
2017-08-07T06:10:47.673Z,284
2017-08-07T06:11:47.733Z,288
2017-08-07T06:12:47.781Z,292
2017-08-07T06:13:47.834Z,296
2017-08-07T06:14:47.899Z,296
2017-08-07T06:15:47.943Z,300
2017-08-07T06:16:48.009Z,300
2017-08-07T06:17:48.057Z,300
2017-08-07T06:18:48.114Z,308
2017-08-07T06:19:48.176Z,308
2017-08-07T06:20:48.229Z,308
2017-08-07T06:21:48.308Z,312
2017-08-07T06:22:48.332Z,312
2017-08-07T06:23:48.392Z,312
2017-08-07T06:24:48.447Z,316
2017-08-07T06:25:48.501Z,316
2017-08-07T06:26:48.554Z,320
2017-08-07T06:27:48.619Z,320
2017-08-07T06:28:48.662Z,324
2017-08-07T06:29:48.723Z,328
2017-08-07T06:30:48.782Z,328
2017-08-07T06:31:48.840Z,328
2017-08-07T06:32:48.893Z,332
2017-08-07T06:33:48.939Z,332
2017-08-07T06:34:48.994Z,336
2017-08-07T06:35:49.064Z,336
2017-08-07T06:36:49.109Z,340
2017-08-07T06:37:49.156Z,340
2017-08-07T06:38:48.910Z,344
2017-08-07T06:39:49.274Z,344
2017-08-07T06:40:49.322Z,344
2017-08-07T06:41:49.392Z,344
2017-08-07T06:42:49.435Z,344
2017-08-07T06:43:49.201Z,348
2017-08-07T06:44:49.248Z,348
2017-08-07T06:45:49.310Z,352
2017-08-07T06:46:49.666Z,356
2017-08-07T06:47:49.414Z,356
2017-08-07T06:48:49.479Z,360
2017-08-07T06:49:49.522Z,360
2017-08-07T06:50:49.889Z,360
2017-08-07T06:51:49.940Z,360
2017-08-07T06:52:50.003Z,364
2017-08-07T06:53:49.747Z,364
2017-08-07T06:54:50.107Z,368
2017-08-07T06:55:50.165Z,364
2017-08-07T06:56:50.216Z,372
2017-08-07T06:57:50.289Z,372
2017-08-07T06:58:50.336Z,372
2017-08-07T06:59:50.378Z,376
2017-08-07T07:00:50.444Z,376
2017-08-07T07:01:50.493Z,376
2017-08-07T07:02:50.555Z,380
2017-08-07T07:03:50.612Z,380
2017-08-07T07:04:50.668Z,376
2017-08-07T07:05:50.725Z,376
2017-08-07T07:06:50.477Z,384
2017-08-07T07:07:50.823Z,384
2017-08-07T07:08:50.589Z,388
2017-08-07T07:09:50.950Z,388
2017-08-07T07:10:50.985Z,388
2017-08-07T07:11:50.746Z,392
2017-08-07T07:12:51.107Z,388
2017-08-07T07:13:50.856Z,392
2017-08-07T07:14:51.227Z,396
2017-08-07T07:15:50.966Z,392
2017-08-07T07:16:51.330Z,396
2017-08-07T07:17:51.388Z,400
2017-08-07T07:18:51.450Z,396
2017-08-07T07:19:51.502Z,400
2017-08-07T07:20:51.254Z,400
2017-08-07T07:21:51.609Z,400
2017-08-07T07:22:51.666Z,404
2017-08-07T07:23:51.707Z,404
2017-08-07T07:24:51.764Z,408
2017-08-07T07:25:51.834Z,408
2017-08-07T07:26:51.885Z,412
2017-08-07T07:27:51.646Z,412
2017-08-07T07:28:51.995Z,412
2017-08-07T07:29:52.061Z,416
2017-08-07T07:30:52.107Z,420
2017-08-07T07:31:51.854Z,424
2017-08-07T07:32:52.219Z,424
2017-08-07T07:33:52.272Z,428
2017-08-07T07:34:52.327Z,428
2017-08-07T07:35:52.395Z,428
2017-08-07T07:36:51.829Z,428
2017-08-07T07:37:52.196Z,436
2017-08-07T07:38:52.548Z,436
2017-08-07T07:39:52.605Z,440
2017-08-07T07:40:52.651Z,444
2017-08-07T07:41:52.709Z,444
2017-08-07T07:42:52.778Z,448
2017-08-07T07:43:52.828Z,448
2017-08-07T07:44:52.885Z,452
2017-08-07T07:45:52.632Z,456
2017-08-07T07:46:52.995Z,456
2017-08-07T07:47:53.059Z,460
2017-08-07T07:48:53.113Z,460
2017-08-07T07:49:52.850Z,464
2017-08-07T07:50:53.216Z,468
2017-08-07T07:51:52.963Z,468
2017-08-07T07:52:53.317Z,476
2017-08-07T07:53:53.069Z,476
2017-08-07T07:56:53.249Z,484
2017-08-07T07:57:53.607Z,488
2017-08-07T07:58:53.661Z,492
2017-08-07T07:59:53.712Z,496
2017-08-07T08:00:53.773Z,496
2017-08-07T08:01:53.823Z,496
2017-08-07T08:02:53.595Z,504
2017-08-07T08:03:53.624Z,504
2017-08-07T08:04:53.995Z,504
2017-08-07T08:05:53.740Z,508
2017-08-07T08:06:53.789Z,512
2017-08-07T08:07:53.850Z,512
2017-08-07T08:08:54.223Z,520
2017-08-07T08:09:54.268Z,520
2017-08-07T08:10:54.329Z,524
2017-08-07T08:11:54.383Z,528
2017-08-07T08:12:54.438Z,532
2017-08-07T08:13:54.181Z,532
2017-08-07T08:14:54.552Z,536
2017-08-07T08:15:54.603Z,540
2017-08-07T08:16:54.657Z,540
2017-08-07T08:17:54.703Z,548
2017-08-07T08:18:54.759Z,548
2017-08-07T08:19:54.822Z,548
2017-08-07T08:20:54.881Z,552
2017-08-07T08:21:54.941Z,556
2017-08-07T08:22:54.675Z,560
2017-08-07T08:23:54.732Z,564
2017-08-07T08:24:55.088Z,564
2017-08-07T08:25:55.152Z,572
2017-08-07T08:26:54.919Z,572
2017-08-07T08:27:55.262Z,572
2017-08-07T08:28:55.343Z,576
2017-08-07T08:29:55.061Z,580
2017-08-07T08:30:55.120Z,584
2017-08-07T08:31:55.475Z,588
2017-08-07T08:32:55.231Z,588
2017-08-07T08:33:55.288Z,592
2017-08-07T08:34:55.646Z,596
2017-08-07T08:35:55.702Z,600
2017-08-07T08:36:55.759Z,600
2017-08-07T08:37:55.504Z,608
2017-08-07T08:38:55.862Z,608
2017-08-07T08:39:55.619Z,612
2017-08-07T08:40:55.982Z,616
2017-08-07T08:41:56.035Z,620
2017-08-07T08:42:56.097Z,620
2017-08-07T08:43:56.141Z,612
2017-08-07T08:44:56.195Z,620
2017-08-07T08:45:56.258Z,628
2017-08-07T08:46:56.303Z,624
2017-08-07T08:47:56.358Z,632
2017-08-07T08:48:56.409Z,628
2017-08-07T08:49:56.481Z,624
2017-08-07T08:50:56.533Z,632
2017-08-07T08:51:56.577Z,636
2017-08-07T08:52:56.335Z,636
2017-08-07T08:53:56.706Z,640
2017-08-07T08:54:56.750Z,640
2017-08-07T08:55:56.497Z,632
2017-08-07T08:56:56.867Z,656
2017-08-07T08:57:56.910Z,652
2017-08-07T08:58:56.970Z,672
2017-08-07T08:59:57.023Z,680
2017-08-07T09:00:56.781Z,688
2017-08-07T09:01:57.141Z,688
2017-08-07T09:02:57.194Z,692
2017-08-07T09:03:57.244Z,700
2017-08-07T09:04:57.309Z,700
2017-08-07T09:05:57.361Z,704
2017-08-07T09:06:57.412Z,708
2017-08-07T09:07:57.470Z,712
2017-08-07T09:08:57.533Z,716
2017-08-07T09:09:57.584Z,720
2017-08-07T09:10:57.027Z,720
2017-08-07T09:11:57.700Z,720
2017-08-07T09:12:57.768Z,728
2017-08-07T09:13:57.502Z,732
2017-08-07T09:14:57.865Z,732
2017-08-07T09:15:57.927Z,744
2017-08-07T09:16:57.975Z,752
2017-08-07T09:17:57.732Z,756
2017-08-07T09:18:57.784Z,752
2017-08-07T09:19:57.830Z,756
2017-08-07T09:20:57.885Z,756
2017-08-07T09:21:58.252Z,756
2017-08-07T09:22:58.311Z,760
2017-08-07T09:23:58.361Z,756
2017-08-07T09:24:58.425Z,764
2017-08-07T09:25:58.467Z,772
2017-08-07T09:26:58.528Z,780
2017-08-07T09:27:58.584Z,788
2017-08-07T09:28:58.647Z,776
2017-08-07T09:29:58.702Z,792
2017-08-07T09:30:58.754Z,792
2017-08-07T09:31:58.809Z,804
2017-08-07T09:32:58.867Z,812
2017-08-07T09:33:58.921Z,820
2017-08-07T09:34:58.967Z,824
2017-08-07T09:35:59.033Z,832
2017-08-07T09:36:59.093Z,832
2017-08-07T09:37:59.141Z,844
2017-08-07T09:38:59.196Z,836
2017-08-07T09:39:59.260Z,844
2017-08-07T09:40:59.317Z,836
2017-08-07T09:41:59.377Z,824
2017-08-07T09:42:59.420Z,816
2017-08-07T09:43:59.165Z,832
2017-08-07T09:44:59.557Z,832
2017-08-07T09:45:59.592Z,832
2017-08-07T09:46:59.647Z,856
2017-08-07T09:47:59.700Z,880
2017-08-07T09:48:59.751Z,864
2017-08-07T09:49:59.820Z,888
2017-08-07T09:50:59.859Z,880
2017-08-07T09:51:59.919Z,888
2017-08-07T09:52:59.982Z,900
2017-08-07T09:54:00.027Z,872
2017-08-07T09:55:00.094Z,888
2017-08-07T09:56:00.141Z,908
2017-08-07T09:57:00.204Z,904
2017-08-07T09:58:00.255Z,916
2017-08-07T09:59:00.314Z,920
2017-08-07T10:00:00.064Z,908
2017-08-07T10:01:00.434Z,904
2017-08-07T10:02:00.478Z,920
2017-08-07T10:03:00.542Z,912
2017-08-07T10:04:00.591Z,908
2017-08-07T10:05:00.639Z,908
2017-08-07T10:06:00.694Z,932
2017-08-07T10:07:00.463Z,932
2017-08-07T10:08:00.523Z,944
2017-08-07T10:09:00.876Z,956
2017-08-07T10:10:00.936Z,948
2017-08-07T10:11:00.992Z,960
2017-08-07T10:12:01.032Z,960
2017-08-07T10:13:01.099Z,964
2017-08-07T10:14:01.161Z,964
2017-08-07T10:15:01.208Z,960
2017-08-07T10:16:01.259Z,968
2017-08-07T10:17:01.327Z,964
2017-08-07T10:18:01.373Z,972
2017-08-07T10:19:01.432Z,984
2017-08-07T10:20:01.497Z,976
2017-08-07T10:21:01.555Z,988
2017-08-07T10:22:01.598Z,984
2017-08-07T10:23:01.655Z,996
2017-08-07T10:24:01.722Z,1000
2017-08-07T10:25:01.767Z,1008
2017-08-07T10:26:01.814Z,1012
2017-08-07T10:27:01.877Z,1020
2017-08-07T10:28:01.932Z,1020
2017-08-07T10:29:01.997Z,1036
2017-08-07T10:30:02.056Z,1040
2017-08-07T10:31:02.097Z,1048
2017-08-07T10:32:02.146Z,1056
2017-08-07T10:33:02.219Z,1048
2017-08-07T10:34:01.980Z,1052
2017-08-07T10:35:02.322Z,1056
2017-08-07T10:36:02.374Z,1060
2017-08-07T10:37:02.440Z,1068
2017-08-07T10:38:02.496Z,1056
2017-08-07T10:39:02.544Z,1048
2017-08-07T10:40:02.598Z,1076
2017-08-07T10:41:02.656Z,1068
2017-08-07T10:42:02.723Z,1080
2017-08-07T10:43:02.774Z,1056
2017-08-07T10:44:02.828Z,1084
2017-08-07T10:45:02.577Z,1068
2017-08-07T10:46:02.940Z,1096
2017-08-07T10:47:02.689Z,1088
2017-08-07T10:48:03.059Z,1092
2017-08-07T10:49:02.820Z,1072
2017-08-07T10:50:03.163Z,1020
2017-08-07T10:51:03.226Z,1092
2017-08-07T10:52:02.968Z,1104
2017-08-07T10:53:03.326Z,1108
2017-08-07T10:54:03.390Z,1080
2017-08-07T10:55:03.439Z,1096
2017-08-07T10:56:03.188Z,1092
2017-08-07T10:57:03.241Z,1092
2017-08-07T10:58:03.604Z,1104
2017-08-07T10:59:03.671Z,1108
2017-08-07T11:00:03.414Z,1100
2017-08-07T11:01:03.475Z,1096
2017-08-07T11:02:03.839Z,1112
2017-08-07T11:03:03.898Z,1124
2017-08-07T11:04:03.941Z,1116
2017-08-07T11:05:03.997Z,1124
2017-08-07T11:06:04.061Z,1048
2017-08-07T11:07:04.113Z,1000
2017-08-07T11:08:04.171Z,984
2017-08-07T11:09:04.231Z,1016
2017-08-07T11:10:04.282Z,1056
2017-08-07T11:11:04.337Z,1056
2017-08-07T11:12:04.398Z,1060
2017-08-07T11:13:04.476Z,1060
2017-08-07T11:14:04.496Z,1064
2017-08-07T11:15:03.951Z,1048
2017-08-07T11:16:04.312Z,1032
2017-08-07T11:17:04.662Z,1040
2017-08-07T11:18:04.732Z,1072
2017-08-07T11:19:04.784Z,1100
2017-08-07T11:20:04.847Z,1112
2017-08-07T11:21:04.905Z,1160
2017-08-07T11:22:04.943Z,1084
2017-08-07T11:23:05.010Z,976
2017-08-07T11:24:05.065Z,900
2017-08-07T11:25:05.120Z,1120
2017-08-07T11:26:05.173Z,1100
2017-08-07T11:27:04.938Z,1108
2017-08-07T11:28:04.987Z,1120
2017-08-07T11:29:05.353Z,1116
2017-08-07T11:30:05.098Z,1108
2017-08-07T11:31:05.153Z,1116
2017-08-07T11:32:05.213Z,1124
2017-08-07T11:33:05.563Z,1116
2017-08-07T11:34:05.623Z,1108
2017-08-07T11:35:05.685Z,1096
2017-08-07T11:36:05.731Z,1080
2017-08-07T11:37:05.786Z,1104
2017-08-07T11:38:05.849Z,1060
2017-08-07T11:39:05.606Z,1072
2017-08-07T11:40:05.709Z,1064
2017-08-07T11:41:06.023Z,1080
2017-08-07T11:42:05.774Z,1104
2017-08-07T11:43:05.824Z,1104
2017-08-07T11:44:06.189Z,1100
2017-08-07T11:45:06.246Z,1060
2017-08-07T11:46:05.995Z,1116
2017-08-07T11:47:06.356Z,1124
2017-08-07T11:48:06.410Z,1136
2017-08-07T11:49:06.465Z,1944
2017-08-07T11:50:06.510Z,9268
2017-08-07T11:51:06.581Z,10696
2017-08-07T11:52:06.627Z,3408
2017-08-07T11:53:06.382Z,1228
2017-08-07T11:54:06.441Z,1220
2017-08-07T11:55:06.516Z,1248
2017-08-07T11:56:06.854Z,1184
2017-08-07T11:57:06.920Z,1136
2017-08-07T11:58:06.964Z,1140
2017-08-07T11:59:07.018Z,1172
2017-08-07T12:00:07.086Z,1176
2017-08-07T12:01:07.140Z,1156
2017-08-07T12:02:07.184Z,1144
2017-08-07T12:03:07.470Z,1124
2017-08-07T12:04:07.299Z,1100
2017-08-07T12:05:07.359Z,1116
2017-08-07T12:06:07.421Z,1096
2017-08-07T12:07:07.167Z,1056
2017-08-07T12:08:07.538Z,1056
2017-08-07T12:09:07.291Z,1052
2017-08-07T12:10:07.662Z,1052
2017-08-07T12:11:07.694Z,1048
2017-08-07T12:12:07.457Z,1052
2017-08-07T12:13:07.504Z,1048
2017-08-07T12:14:07.868Z,1040
2017-08-07T12:15:07.928Z,1036
2017-08-07T12:16:08.022Z,1036
2017-08-07T12:17:08.042Z,1028
2017-08-07T12:18:08.084Z,1016
2017-08-07T12:19:08.144Z,1020
2017-08-07T12:20:08.201Z,1028
2017-08-07T12:21:08.265Z,1028
2017-08-07T12:22:08.011Z,1028
2017-08-07T12:23:08.376Z,1024
2017-08-07T12:24:08.421Z,1032
2017-08-07T12:25:07.880Z,1088
2017-08-07T12:26:08.235Z,1272
2017-08-07T12:27:08.599Z,1696
2017-08-07T12:28:08.656Z,1512
2017-08-07T12:29:08.697Z,1040
2017-08-07T12:30:08.770Z,1004
2017-08-07T12:31:08.815Z,1004
2017-08-07T12:32:08.887Z,988
2017-08-07T12:33:08.634Z,984
2017-08-07T12:34:09.001Z,1000
2017-08-07T12:35:08.746Z,996
2017-08-07T12:36:09.108Z,996
2017-08-07T12:37:09.162Z,992
2017-08-07T12:38:08.910Z,980
2017-08-07T12:39:08.966Z,980
2017-08-07T12:40:09.030Z,988
2017-08-07T12:41:09.384Z,992
2017-08-07T12:42:09.444Z,992
2017-08-07T12:43:09.499Z,996
2017-08-07T12:44:09.244Z,992
2017-08-07T12:45:09.615Z,988
2017-08-07T12:46:09.682Z,984
2017-08-07T12:47:09.429Z,992
2017-08-07T12:48:09.474Z,1000
2017-08-07T12:49:09.836Z,1020
2017-08-07T12:50:09.891Z,1028
2017-08-07T12:51:09.948Z,1036
2017-08-07T12:52:10.010Z,1020
2017-08-07T12:53:09.757Z,948
2017-08-07T12:54:09.804Z,1008
2017-08-07T12:55:10.179Z,1004
2017-08-07T12:56:10.227Z,988
2017-08-07T12:57:10.285Z,948
2017-08-07T12:58:10.351Z,888
2017-08-07T12:59:10.092Z,828
2017-08-07T13:00:10.164Z,892
2017-08-07T13:01:10.203Z,904
2017-08-07T13:02:10.561Z,864
2017-08-07T13:03:10.319Z,832
2017-08-07T13:04:10.671Z,816
2017-08-07T13:05:10.737Z,912
2017-08-07T13:06:10.183Z,1004
2017-08-07T13:07:10.550Z,1012
2017-08-07T13:08:10.906Z,1004
2017-08-07T13:09:10.967Z,988
2017-08-07T13:10:11.009Z,964
2017-08-07T13:11:11.066Z,896
2017-08-07T13:12:10.821Z,900
2017-08-07T13:13:11.186Z,876
2017-08-07T13:14:11.242Z,876
2017-08-07T13:15:11.295Z,868
2017-08-07T13:16:11.354Z,868
2017-08-07T13:17:11.110Z,836
2017-08-07T13:18:11.462Z,852
2017-08-07T13:19:11.532Z,852
2017-08-07T13:20:11.582Z,864
2017-08-07T13:21:11.336Z,860
2017-08-07T13:22:11.700Z,848
2017-08-07T13:23:11.744Z,848
2017-08-07T13:24:11.820Z,840
2017-08-07T13:25:11.869Z,816
2017-08-07T13:26:11.922Z,804
2017-08-07T13:27:11.969Z,804
2017-08-07T13:28:11.725Z,796
2017-08-07T13:29:12.089Z,792
2017-08-07T13:30:12.138Z,796
2017-08-07T13:31:11.890Z,796
2017-08-07T13:32:11.963Z,788
2017-08-07T13:33:12.307Z,784
2017-08-07T13:34:12.361Z,780
2017-08-07T13:35:12.433Z,772
2017-08-07T13:36:12.477Z,772
2017-08-07T13:37:12.537Z,772
2017-08-07T13:38:12.579Z,752
2017-08-07T13:39:12.648Z,704
2017-08-07T13:40:12.701Z,764
2017-08-07T13:41:12.455Z,776
2017-08-07T13:42:12.811Z,780
2017-08-07T13:43:12.572Z,804
2017-08-07T13:44:12.927Z,804
2017-08-07T13:45:12.685Z,716
2017-08-07T13:46:12.742Z,756
2017-08-07T13:47:12.790Z,724
2017-08-07T13:48:13.151Z,752
2017-08-07T13:49:13.215Z,752
2017-08-07T13:50:12.657Z,804
2017-08-07T13:51:13.028Z,792
2017-08-07T13:52:13.382Z,852
2017-08-07T13:53:13.442Z,848
2017-08-07T13:54:13.488Z,836
2017-08-07T13:55:13.543Z,840
2017-08-07T13:56:13.600Z,832
2017-08-07T13:57:13.656Z,800
2017-08-07T13:58:13.718Z,776
2017-08-07T13:59:13.772Z,744
2017-08-07T14:00:13.514Z,744
2017-08-07T14:01:13.875Z,796
2017-08-07T14:02:13.936Z,820